Time;durP1;ratioP1;P1;durP2;ratioP2;P2;SDS_P1;SDS_P2;PMS_P1;PMS_P2;Temp;Humidity;BMP_temperature;BMP_pressure;BME280_temperature;BME280_humidity;BME280_pressure;Samples;Min_cycle;Max_cycle;Signal;HPM_P1;HPM_P2
2023/04/30 00:01:30;;;;;;;;;;;;;;;26.70;40.55;94238.06;5029710;28;8627;-63
2023/04/30 00:04:07;;;;;;;;;;;;;;;26.70;40.61;94235.31;5025097;28;9173;-63
2023/04/30 00:06:44;;;;;;;;;;;;;;;26.70;40.73;94238.06;5018095;28;7298;-63
2023/04/30 00:09:10;;;;;;;;;;;;;;;26.70;40.14;94241.56;5015957;28;7205;-63
2023/04/30 00:11:43;;;;;;;;;;;;;;;26.70;40.10;94238.06;5031867;28;7286;-63
2023/04/30 00:14:35;;;;;;;;;;;;;;;26.70;40.95;94240.81;5018489;28;9303;-63
2023/04/30 00:17:05;;;;;;;;;;;;;;;26.69;40.34;94248.34;5033126;28;7454;-63
2023/04/30 00:19:44;;;;;;;;;;;;;;;26.68;40.67;94244.13;5034798;28;7035;-63
2023/04/30 00:22:15;;;;;;;;;;;;;;;26.68;40.50;94240.59;5031081;28;7300;-63
2023/04/30 00:24:43;;;;;;;;;;;;;;;26.68;40.45;94246.13;5032775;28;7035;-63
2023/04/30 00:27:11;;;;;;;;;;;;;;;26.66;40.48;94238.38;5027442;28;8176;-63
2023/04/30 00:29:46;;;;;;;;;;;;;;;26.66;40.82;94238.38;5037201;28;7260;-63
2023/04/30 00:32:22;;;;;;;;;;;;;;;26.66;40.51;94237.63;5025393;28;7284;-63
2023/04/30 00:34:50;;;;;;;;;;;;;;;26.66;40.34;94237.63;5033211;28;9222;-64
2023/04/30 00:37:21;;;;;;;;;;;;;;;26.66;41.11;94243.13;5034140;28;7013;-63
2023/04/30 00:39:53;;;;;;;;;;;;;;;26.65;40.81;94242.38;5044518;28;7121;-63
2023/04/30 00:42:26;;;;;;;;;;;;;;;26.65;40.94;94236.13;5033881;28;9083;-63
2023/04/30 00:45:12;;;;;;;;;;;;;;;26.65;41.15;94236.13;5033679;28;9273;-64
2023/04/30 00:47:38;;;;;;;;;;;;;;;26.64;41.14;94234.63;5034356;28;9271;-63
2023/04/30 00:50:10;;;;;;;;;;;;;;;26.63;41.01;94228.38;5040974;28;7063;-63
2023/04/30 00:52:49;;;;;;;;;;;;;;;26.64;40.11;94229.13;5023935;28;8636;-63
2023/04/30 00:55:34;;;;;;;;;;;;;;;26.63;40.54;94217.34;5033368;28;9013;-63
2023/04/30 00:58:00;;;;;;;;;;;;;;;26.64;40.49;94223.59;5017473;28;8932;-63
2023/04/30 01:00:27;;;;;;;;;;;;;;;26.64;41.12;94218.81;5035174;28;9211;-63
2023/04/30 01:02:57;;;;;;;;;;;;;;;26.67;40.74;94222.53;5030221;28;9363;-63
2023/04/30 01:05:23;;;;;;;;;;;;;;;26.65;40.77;94223.06;5028251;28;9422;-63
2023/04/30 01:07:50;;;;;;;;;;;;;;;26.65;40.41;94225.09;5018303;28;8784;-64
2023/04/30 01:10:59;;;;;;;;;;;;;;;26.66;41.11;94221.06;5044883;28;7335;-63
2023/04/30 01:13:38;;;;;;;;;;;;;;;26.66;40.74;94221.06;5014997;28;7338;-63
2023/04/30 01:16:21;;;;;;;;;;;;;;;26.65;40.54;94219.56;5016560;28;7432;-64
2023/04/30 01:18:57;;;;;;;;;;;;;;;26.66;40.77;94216.31;5026494;28;7432;-64
2023/04/30 01:21:32;;;;;;;;;;;;;;;26.66;40.84;94216.31;5025067;28;9143;-64
2023/04/30 01:24:48;;;;;;;;;;;;;;;26.66;40.69;94213.53;5020518;28;7204;-64
2023/04/30 01:27:28;;;;;;;;;;;;;;;26.65;41.04;94208.53;5029841;28;7905;-63
2023/04/30 01:29:58;;;;;;;;;;;;;;;26.65;40.54;94211.28;5019274;28;7203;-63
2023/04/30 01:32:24;;;;;;;;;;;;;;;26.64;41.15;94207.06;5044471;28;9027;-64
2023/04/30 01:34:52;;;;;;;;;;;;;;;26.64;40.99;94212.56;5048066;28;7224;-63
2023/04/30 01:37:29;;;;;;;;;;;;;;;26.63;41.10;94205.56;5035086;28;9568;-64
2023/04/30 01:40:22;;;;;;;;;;;;;;;26.63;40.58;94206.31;5030490;28;7255;-64
2023/04/30 01:43:23;;;;;;;;;;;;;;;26.64;40.79;94204.28;5025599;28;7100;-63
2023/04/30 01:46:11;;;;;;;;;;;;;;;26.65;41.05;94200.25;4992564;28;8886;-64
2023/04/30 01:49:24;;;;;;;;;;;;;;;26.66;40.67;94204.50;4976997;28;7265;-63
2023/04/30 01:52:02;;;;;;;;;;;;;;;26.64;40.62;94209.81;4985049;28;7346;-64
2023/04/30 01:54:42;;;;;;;;;;;;;;;26.63;40.75;94197.28;4976393;28;7217;-63
2023/04/30 01:57:47;;;;;;;;;;;;;;;26.62;40.22;94204.78;4997507;28;8999;-64
2023/04/30 02:00:16;;;;;;;;;;;;;;;26.62;41.13;94204.06;4991712;28;9046;-63
2023/04/30 02:02:53;;;;;;;;;;;;;;;26.61;40.64;94197.06;4991795;28;9321;-63
2023/04/30 02:05:46;;;;;;;;;;;;;;;26.63;40.93;94202.78;4985266;28;9070;-63
2023/04/30 02:08:27;;;;;;;;;;;;;;;26.63;40.29;94206.31;5012288;28;9071;-64
2023/04/30 02:11:25;;;;;;;;;;;;;;;26.63;41.02;94202.78;5008600;28;8710;-63
2023/04/30 02:13:53;;;;;;;;;;;;;;;26.62;40.76;94193.03;4992026;28;8927;-64
2023/04/30 02:16:20;;;;;;;;;;;;;;;26.60;41.01;94184.53;4993671;28;7058;-63
2023/04/30 02:19:13;;;;;;;;;;;;;;;26.61;40.55;94188.78;5006862;28;7036;-64
2023/04/30 02:21:49;;;;;;;;;;;;;;;26.59;40.96;94185.78;4977640;28;9151;-63
2023/04/30 02:24:16;;;;;;;;;;;;;;;26.59;41.19;94188.56;4990601;28;8846;-64
2023/04/30 02:26:50;;;;;;;;;;;;;;;26.55;40.72;94183.34;4966494;28;9148;-63
2023/04/30 02:29:28;;;;;;;;;;;;;;;26.61;40.45;94197.06;4986761;28;9461;-63
2023/04/30 02:32:07;;;;;;;;;;;;;;;26.61;40.84;94205.31;4977059;28;7149;-63
2023/04/30 02:34:42;;;;;;;;;;;;;;;26.57;41.01;94191.84;4962592;28;7925;-63
2023/04/30 02:37:08;;;;;;;;;;;;;;;26.60;40.77;94190.06;4974683;28;7370;-63
2023/04/30 02:39:34;;;;;;;;;;;;;;;26.66;40.71;94190.72;4991014;28;9065;-64
2023/04/30 02:42:00;;;;;;;;;;;;;;;26.65;40.80;94192.72;4993802;28;9176;-64
2023/04/30 02:44:26;;;;;;;;;;;;;;;26.66;41.13;94193.47;4987613;28;7446;-64
2023/04/30 02:46:52;;;;;;;;;;;;;;;26.66;40.72;94188.72;4975377;28;9044;-63
2023/04/30 02:49:37;;;;;;;;;;;;;;;26.66;40.99;94193.47;4962002;28;9011;-63
2023/04/30 02:52:37;;;;;;;;;;;;;;;26.66;40.34;94187.97;4978080;28;7055;-63
2023/04/30 02:55:15;;;;;;;;;;;;;;;26.67;41.02;94189.44;4937920;28;7254;-63
2023/04/30 02:57:41;;;;;;;;;;;;;;;26.68;40.67;94185.44;4956479;28;8766;-63
2023/04/30 03:00:08;;;;;;;;;;;;;;;26.69;40.44;94178.63;4939712;28;9455;-64
2023/04/30 03:02:37;;;;;;;;;;;;;;;26.68;40.16;94177.91;4956219;28;8951;-63
2023/04/30 03:05:03;;;;;;;;;;;;;;;26.68;40.88;94174.38;4957506;28;7582;-63
2023/04/30 03:07:29;;;;;;;;;;;;;;;26.72;40.63;94174.84;4949766;28;7004;-64
2023/04/30 03:09:57;;;;;;;;;;;;;;;26.66;40.67;94174.16;4948149;28;8096;-64
2023/04/30 03:12:34;;;;;;;;;;;;;;;26.64;40.59;94169.16;4958788;28;9374;-63
2023/04/30 03:15:20;;;;;;;;;;;;;;;26.64;40.35;94174.66;4965326;28;7127;-63
2023/04/30 03:17:55;;;;;;;;;;;;;;;26.63;40.69;94181.47;4956705;28;7268;-64
2023/04/30 03:20:47;;;;;;;;;;;;;;;26.62;40.61;94179.97;4947715;28;7031;-63
2023/04/30 03:23:14;;;;;;;;;;;;;;;26.63;41.23;94177.97;4966569;28;7131;-63
2023/04/30 03:26:11;;;;;;;;;;;;;;;26.63;40.97;94180.72;4957949;28;8293;-63
2023/04/30 03:28:46;;;;;;;;;;;;;;;26.63;40.50;94166.94;4983432;28;8885;-63
2023/04/30 03:31:41;;;;;;;;;;;;;;;26.64;41.25;94176.72;5007899;28;7263;-63
2023/04/30 03:34:32;;;;;;;;;;;;;;;26.62;40.42;94171.69;5017530;28;7182;-63
2023/04/30 03:37:02;;;;;;;;;;;;;;;26.61;41.32;94170.22;5034305;28;9298;-63
2023/04/30 03:39:28;;;;;;;;;;;;;;;26.60;40.70;94168.00;5031871;28;9249;-63
2023/04/30 03:41:54;;;;;;;;;;;;;;;26.60;40.64;94173.50;5034297;28;7679;-63
2023/04/30 03:44:32;;;;;;;;;;;;;;;26.61;40.84;94172.22;5001830;28;9147;-63
2023/04/30 03:47:01;;;;;;;;;;;;;;;26.62;40.75;94170.97;5005139;28;7206;-64
2023/04/30 03:49:27;;;;;;;;;;;;;;;26.60;40.70;94171.47;5030111;28;7137;-63
2023/04/30 03:52:02;;;;;;;;;;;;;;;26.60;41.00;94173.50;5029250;28;7232;-64
2023/04/30 03:54:30;;;;;;;;;;;;;;;26.61;40.72;94172.22;5011075;28;7467;-63
2023/04/30 03:57:27;;;;;;;;;;;;;;;26.61;40.70;94166.72;5016261;28;7091;-63
2023/04/30 04:00:14;;;;;;;;;;;;;;;26.60;41.33;94170.75;5006602;28;7547;-63
2023/04/30 04:02:51;;;;;;;;;;;;;;;26.59;41.05;94167.25;5013879;28;7346;-63
2023/04/30 04:05:25;;;;;;;;;;;;;;;26.61;40.69;94163.94;5039309;28;7254;-64
2023/04/30 04:08:09;;;;;;;;;;;;;;;26.61;40.54;94169.47;5027111;28;7439;-63
2023/04/30 04:10:44;;;;;;;;;;;;;;;26.61;40.96;94166.72;5024493;28;8691;-63
2023/04/30 04:13:12;;;;;;;;;;;;;;;26.60;41.27;94160.44;5018029;28;6868;-64
2023/04/30 04:16:16;;;;;;;;;;;;;;;26.59;40.62;94170.00;5016693;28;7237;-64
2023/04/30 04:18:43;;;;;;;;;;;;;;;26.58;40.71;94168.50;5013829;28;7643;-64
2023/04/30 04:21:20;;;;;;;;;;;;;;;26.57;40.51;94171.78;4996917;28;7189;-63
2023/04/30 04:24:07;;;;;;;;;;;;;;;26.59;41.29;94172.75;5021071;28;9362;-64
2023/04/30 04:26:36;;;;;;;;;;;;;;;26.61;40.96;94174.97;5028847;28;7228;-63
2023/04/30 04:29:15;;;;;;;;;;;;;;;26.59;40.89;94172.00;5027375;28;8961;-63
2023/04/30 04:31:55;;;;;;;;;;;;;;;26.60;41.15;94168.00;5006316;28;9005;-64
2023/04/30 04:34:21;;;;;;;;;;;;;;;26.60;40.69;94173.50;5032078;28;7127;-64
2023/04/30 04:36:58;;;;;;;;;;;;;;;26.58;40.89;94170.50;5030418;28;7136;-64
2023/04/30 04:39:24;;;;;;;;;;;;;;;26.59;40.75;94166.47;4996802;28;7353;-63
2023/04/30 04:42:05;;;;;;;;;;;;;;;26.59;40.67;94175.50;5015389;28;7246;-63
2023/04/30 04:44:48;;;;;;;;;;;;;;;26.64;40.98;94168.44;5005601;28;7140;-63
2023/04/30 04:47:15;;;;;;;;;;;;;;;26.63;40.45;94172.44;5016253;28;9121;-64
2023/04/30 04:49:41;;;;;;;;;;;;;;;26.62;40.67;94187.53;5032534;28;7315;-63
2023/04/30 04:52:17;;;;;;;;;;;;;;;26.64;40.85;94179.47;5050306;28;8449;-64
2023/04/30 04:54:43;;;;;;;;;;;;;;;26.65;40.90;94181.69;5019237;28;7272;-64
2023/04/30 04:57:28;;;;;;;;;;;;;;;26.63;40.31;94177.97;5024621;28;9442;-63
2023/04/30 05:00:09;;;;;;;;;;;;;;;26.60;41.28;94182.50;5017076;28;7215;-63
2023/04/30 05:02:35;;;;;;;;;;;;;;;26.61;40.70;94177.75;5046164;28;9298;-63
2023/04/30 05:05:04;;;;;;;;;;;;;;;26.64;41.09;94173.94;5029733;28;9029;-63
2023/04/30 05:11:12;;;;;;;;;;;;;;;26.60;40.84;94179.03;5034510;28;6741;-63
2023/04/30 05:13:57;;;;;;;;;;;;;;;26.61;40.56;94175.72;5033623;28;7276;-63
2023/04/30 05:16:43;;;;;;;;;;;;;;;26.59;41.09;94178.28;5014674;28;7223;-63
2023/04/30 05:19:27;;;;;;;;;;;;;;;26.63;41.28;94191.75;5032988;28;9027;-63
2023/04/30 05:21:57;;;;;;;;;;;;;;;26.63;41.09;94194.50;5046511;28;7619;-63
2023/04/30 05:24:54;;;;;;;;;;;;;;;26.65;40.68;94180.94;5022546;28;7041;-63
2023/04/30 05:27:23;;;;;;;;;;;;;;;26.63;41.08;94177.97;4996415;28;9446;-63
2023/04/30 05:29:59;;;;;;;;;;;;;;;26.63;40.79;94178.72;4999466;28;7491;-63
2023/04/30 05:32:39;;;;;;;;;;;;;;;26.64;40.66;94182.22;5001413;28;8940;-64
2023/04/30 05:35:20;;;;;;;;;;;;;;;26.65;40.98;94181.69;4998481;28;9034;-63
2023/04/30 05:38:13;;;;;;;;;;;;;;;26.64;41.13;94180.19;4991715;28;7007;-64
2023/04/30 05:40:39;;;;;;;;;;;;;;;26.62;40.90;94188.25;4978914;28;9534;-64
2023/04/30 05:43:30;;;;;;;;;;;;;;;26.64;40.50;94179.47;4995188;28;9004;-63
2023/04/30 05:46:15;;;;;;;;;;;;;;;26.62;41.03;94187.53;5010823;28;7236;-64
2023/04/30 05:48:51;;;;;;;;;;;;;;;26.56;40.78;94184.06;4993481;28;9089;-64
2023/04/30 05:51:19;;;;;;;;;;;;;;;26.59;41.04;94189.31;4982312;28;9304;-64
2023/04/30 05:53:45;;;;;;;;;;;;;;;26.58;40.70;94187.81;5013381;28;8917;-64
2023/04/30 05:56:14;;;;;;;;;;;;;;;26.52;41.05;94178.88;5003606;28;9088;-63
2023/04/30 05:58:43;;;;;;;;;;;;;;;26.57;41.13;94188.34;4979513;28;8774;-63
2023/04/30 06:01:24;;;;;;;;;;;;;;;26.57;40.72;94194.59;4996080;28;9076;-62
2023/04/30 06:03:54;;;;;;;;;;;;;;;26.57;40.90;94189.09;5002081;28;9108;-63
2023/04/30 06:06:21;;;;;;;;;;;;;;;26.55;41.18;94193.63;5033654;28;7085;-64
2023/04/30 06:08:47;;;;;;;;;;;;;;;26.59;41.16;94183.78;5018201;28;7117;-64
2023/04/30 06:11:24;;;;;;;;;;;;;;;26.65;41.13;94178.94;5037500;28;7229;-63
2023/04/30 06:14:22;;;;;;;;;;;;;;;26.63;41.13;94181.47;5036032;28;9057;-63
2023/04/30 06:16:50;;;;;;;;;;;;;;;26.62;40.74;94176.50;4985842;28;7051;-64
2023/04/30 06:19:37;;;;;;;;;;;;;;;26.65;41.09;94176.19;4982987;28;7370;-63
2023/04/30 06:22:03;;;;;;;;;;;;;;;26.66;41.39;94177.69;4993894;28;7300;-64
2023/04/30 06:24:33;;;;;;;;;;;;;;;26.72;40.55;94183.09;4982447;28;9386;-63
2023/04/30 06:27:02;;;;;;;;;;;;;;;26.71;40.78;94179.59;4995182;28;7048;-63
2023/04/30 06:29:28;;;;;;;;;;;;;;;26.71;41.08;94176.84;4980568;28;8581;-63
2023/04/30 06:31:54;;;;;;;;;;;;;;;26.71;41.02;94182.34;4997145;28;9031;-63
2023/04/30 06:34:20;;;;;;;;;;;;;;;26.72;40.83;94177.59;4992293;28;7272;-63
2023/04/30 06:37:03;;;;;;;;;;;;;;;26.71;41.08;94173.31;4988322;28;7064;-63
2023/04/30 06:39:31;;;;;;;;;;;;;;;26.68;41.46;94185.44;4991609;28;9038;-63
2023/04/30 06:41:58;;;;;;;;;;;;;;;26.71;40.71;94170.56;4995479;28;7231;-63
2023/04/30 06:44:24;;;;;;;;;;;;;;;26.70;40.29;94178.13;4984393;28;8232;-64
2023/04/30 06:46:50;;;;;;;;;;;;;;;26.70;41.12;94177.38;4986151;28;7211;-64
2023/04/30 06:49:16;;;;;;;;;;;;;;;26.70;40.40;94174.59;4995279;28;7464;-64
2023/04/30 06:51:42;;;;;;;;;;;;;;;26.70;41.17;94178.13;4989585;28;8821;-64
2023/04/30 06:54:08;;;;;;;;;;;;;;;26.71;40.73;94181.59;5035788;28;8851;-63
2023/04/30 06:56:37;;;;;;;;;;;;;;;26.69;40.95;94182.13;5028472;28;9170;-62
2023/04/30 06:59:05;;;;;;;;;;;;;;;26.69;40.62;94184.91;5037951;28;8663;-62
2023/04/30 07:01:33;;;;;;;;;;;;;;;26.75;40.70;94185.59;5030081;28;9498;-61
2023/04/30 07:04:00;;;;;;;;;;;;;;;26.76;40.78;94186.34;5030840;28;9020;-63
2023/04/30 07:06:36;;;;;;;;;;;;;;;26.71;41.37;94178.84;5032605;28;7029;-63
2023/04/30 07:09:05;;;;;;;;;;;;;;;26.72;40.47;94180.34;5025406;28;6911;-63
2023/04/30 07:11:31;;;;;;;;;;;;;;;26.74;40.86;94175.06;5030086;28;8903;-63
2023/04/30 07:14:03;;;;;;;;;;;;;;;26.75;40.66;94184.84;5035159;28;8679;-63
2023/04/30 07:16:31;;;;;;;;;;;;;;;26.77;40.82;94176.81;5026429;28;7265;-63
2023/04/30 07:19:29;;;;;;;;;;;;;;;26.77;40.82;94182.31;5035449;28;7089;-63
2023/04/30 07:22:06;;;;;;;;;;;;;;;26.76;40.77;94175.31;4951430;28;7275;-63
2023/04/30 07:24:43;;;;;;;;;;;;;;;26.72;40.45;94180.34;4958367;28;6984;-63
2023/04/30 07:27:27;;;;;;;;;;;;;;;26.71;41.15;94187.88;4955349;28;9271;-63
2023/04/30 07:29:54;;;;;;;;;;;;;;;26.70;41.01;94172.59;4948760;28;9130;-64
2023/04/30 07:32:37;;;;;;;;;;;;;;;26.71;41.04;94174.06;4955870;28;8603;-64
2023/04/30 07:35:13;;;;;;;;;;;;;;;26.71;40.76;94176.09;4964646;28;7351;-63
2023/04/30 07:37:40;;;;;;;;;;;;;;;26.71;40.93;94173.31;4950317;28;9113;-64
2023/04/30 07:40:12;;;;;;;;;;;;;;;26.73;40.93;94179.13;4953563;28;7010;-64
2023/04/30 07:42:49;;;;;;;;;;;;;;;26.73;41.50;94176.38;4970072;28;7882;-63
2023/04/30 07:45:26;;;;;;;;;;;;;;;26.72;41.68;94180.34;4948580;28;8446;-63
2023/04/30 07:47:52;;;;;;;;;;;;;;;26.70;41.36;94178.13;4951270;28;7289;-64
2023/04/30 07:50:21;;;;;;;;;;;;;;;26.71;41.17;94176.84;4949959;28;6874;-63
2023/04/30 07:52:51;;;;;;;;;;;;;;;26.73;41.01;94165.31;4957490;28;9455;-63
2023/04/30 07:55:35;;;;;;;;;;;;;;;26.71;41.07;94171.31;4940615;28;7428;-63
2023/04/30 07:58:11;;;;;;;;;;;;;;;26.72;41.34;94177.59;4981714;28;8948;-64
2023/04/30 08:00:48;;;;;;;;;;;;;;;26.70;41.49;94171.84;5029961;28;7106;-64
2023/04/30 08:03:31;;;;;;;;;;;;;;;26.63;41.63;94167.69;5027204;28;7225;-64
2023/04/30 08:06:26;;;;;;;;;;;;;;;26.64;41.63;94174.66;5021659;28;7245;-64
2023/04/30 08:08:55;;;;;;;;;;;;;;;26.65;41.54;94169.91;5026112;28;7297;-64
2023/04/30 08:11:23;;;;;;;;;;;;;;;26.64;41.70;94171.19;5021754;28;8641;-64
2023/04/30 08:13:57;;;;;;;;;;;;;;;26.63;40.91;94167.69;5023130;28;7270;-62
2023/04/30 08:16:29;;;;;;;;;;;;;;;26.62;41.38;94168.94;5032991;28;7363;-63
2023/04/30 08:19:04;;;;;;;;;;;;;;;26.60;41.82;94173.50;5032029;28;7009;-65
2023/04/30 08:21:38;;;;;;;;;;;;;;;26.60;41.46;94168.00;5028421;28;8719;-63
2023/04/30 08:24:21;;;;;;;;;;;;;;;26.59;41.13;94172.00;5021974;28;8988;-64
2023/04/30 08:27:05;;;;;;;;;;;;;;;26.60;41.64;94170.75;5023459;28;7255;-63
2023/04/30 08:29:39;;;;;;;;;;;;;;;26.62;41.30;94171.69;5044122;28;7944;-64
2023/04/30 08:32:13;;;;;;;;;;;;;;;26.66;41.83;94171.41;5024785;28;7502;-63
2023/04/30 08:34:50;;;;;;;;;;;;;;;26.65;41.33;94169.91;5030233;28;7222;-63
2023/04/30 08:37:22;;;;;;;;;;;;;;;26.64;41.75;94171.91;5016867;28;8863;-63
2023/04/30 08:39:50;;;;;;;;;;;;;;;26.65;41.32;94172.66;5048684;28;7110;-63
2023/04/30 08:42:56;;;;;;;;;;;;;;;26.62;41.92;94176.50;5033454;28;7408;-63
2023/04/30 08:45:41;;;;;;;;;;;;;;;26.62;41.43;94176.50;5004774;28;7024;-63
2023/04/30 08:48:11;;;;;;;;;;;;;;;26.64;41.34;94182.22;4978542;28;8542;-64
2023/04/30 08:50:45;;;;;;;;;;;;;;;26.63;41.79;94187.00;5001550;28;7200;-63
2023/04/30 08:53:36;;;;;;;;;;;;;;;26.60;41.67;94188.03;4966067;28;7603;-63
2023/04/30 08:56:37;;;;;;;;;;;;;;;26.60;42.06;94190.78;4991148;28;8021;-63
2023/04/30 08:59:23;;;;;;;;;;;;;;;26.57;41.57;94185.56;4984874;28;9438;-63
2023/04/30 09:02:03;;;;;;;;;;;;;;;26.58;41.90;94184.28;4984033;28;7010;-62
2023/04/30 09:04:32;;;;;;;;;;;;;;;26.59;41.79;94188.56;4967035;28;9044;-62
2023/04/30 09:07:00;;;;;;;;;;;;;;;26.57;41.99;94194.59;4965963;28;8831;-63
2023/04/30 09:09:36;;;;;;;;;;;;;;;26.56;42.17;94184.81;4986541;28;7443;-63
2023/04/30 09:12:17;;;;;;;;;;;;;;;26.54;42.36;94190.13;4984505;28;7199;-63
2023/04/30 09:15:07;;;;;;;;;;;;;;;26.57;42.36;94191.09;4964727;28;9156;-64
2023/04/30 09:17:36;;;;;;;;;;;;;;;26.59;41.94;94196.81;4979509;28;7687;-63
2023/04/30 09:20:12;;;;;;;;;;;;;;;26.59;42.75;94189.31;4966986;28;9222;-62
2023/04/30 09:23:10;;;;;;;;;;;;;;;26.58;42.15;94184.28;4978229;28;9649;-63
2023/04/30 09:26:18;;;;;;;;;;;;;;;26.62;42.43;94187.53;4969878;28;7040;-63
2023/04/30 09:28:58;;;;;;;;;;;;;;;26.61;42.24;94175.72;4976314;28;9385;-63
2023/04/30 09:31:40;;;;;;;;;;;;;;;26.63;42.28;94172.44;4992130;28;8705;-63
2023/04/30 09:34:08;;;;;;;;;;;;;;;26.66;42.69;94179.69;5027511;28;7108;-63
2023/04/30 09:36:52;;;;;;;;;;;;;;;26.67;42.56;94181.16;5032391;28;7447;-63
2023/04/30 09:39:28;;;;;;;;;;;;;;;26.70;42.06;94182.88;5033972;28;7300;-63
2023/04/30 09:42:08;;;;;;;;;;;;;;;26.70;42.28;94174.59;5037017;28;9041;-62
2023/04/30 09:45:12;;;;;;;;;;;;;;;26.68;42.45;94175.13;5031922;28;7744;-62
2023/04/30 09:47:53;;;;;;;;;;;;;;;26.67;42.39;94172.88;4994710;28;7041;-62
2023/04/30 09:50:25;;;;;;;;;;;;;;;26.68;42.79;94169.63;4980728;28;9319;-63
2023/04/30 09:53:16;;;;;;;;;;;;;;;26.73;42.41;94168.09;4985112;28;7051;-63
2023/04/30 09:55:48;;;;;;;;;;;;;;;26.76;42.34;94169.78;4983618;28;9074;-63
2023/04/30 09:58:28;;;;;;;;;;;;;;;26.75;42.50;94158.00;4975212;28;7336;-63
2023/04/30 10:00:58;;;;;;;;;;;;;;;26.79;42.06;94158.47;4991632;28;9470;-63
2023/04/30 10:03:25;;;;;;;;;;;;;;;26.82;42.24;94160.16;4986449;28;7073;-63
2023/04/30 10:05:52;;;;;;;;;;;;;;;26.80;42.80;94162.69;4990637;28;7620;-63
2023/04/30 10:08:30;;;;;;;;;;;;;;;26.82;42.31;94159.41;4979010;28;7011;-64
2023/04/30 10:11:04;;;;;;;;;;;;;;;26.84;42.26;94156.84;4977924;28;8659;-63
2023/04/30 10:13:41;;;;;;;;;;;;;;;26.82;41.67;94162.91;4983612;28;7566;-64
2023/04/30 10:16:18;;;;;;;;;;;;;;;26.81;42.29;94155.16;4982602;28;7462;-64
2023/04/30 10:18:49;;;;;;;;;;;;;;;26.81;42.05;94149.66;4981199;28;7473;-62
2023/04/30 10:21:20;;;;;;;;;;;;;;;26.81;41.67;94149.66;5007130;28;7286;-64
2023/04/30 10:23:50;;;;;;;;;;;;;;;26.83;41.68;94150.63;5030092;28;6927;-64
2023/04/30 10:26:16;;;;;;;;;;;;;;;26.81;41.81;94146.88;5045068;28;7270;-64
2023/04/30 10:28:44;;;;;;;;;;;;;;;26.83;42.42;94141.59;5028086;28;9219;-63
2023/04/30 10:31:12;;;;;;;;;;;;;;;26.82;41.67;94149.13;5025083;28;7742;-63
2023/04/30 10:33:48;;;;;;;;;;;;;;;26.83;41.90;94147.09;5023485;28;6995;-62
2023/04/30 10:36:43;;;;;;;;;;;;;;;26.82;42.14;94137.31;5028747;28;7278;-63
2023/04/30 10:39:12;;;;;;;;;;;;;;;26.82;42.14;94134.56;5031883;28;7096;-63
2023/04/30 10:41:45;;;;;;;;;;;;;;;26.84;41.96;94135.53;5044437;28;9401;-63
2023/04/30 10:44:21;;;;;;;;;;;;;;;26.89;41.83;94139.47;5031184;28;9549;-62
2023/04/30 10:46:57;;;;;;;;;;;;;;;26.88;42.11;94129.72;5026065;28;8714;-62
2023/04/30 10:49:25;;;;;;;;;;;;;;;26.85;42.28;94128.75;5037202;28;9111;-63
2023/04/30 10:51:53;;;;;;;;;;;;;;;26.85;43.38;94128.00;5026150;28;8817;-62
2023/04/30 10:54:39;;;;;;;;;;;;;;;26.89;42.52;94128.44;5037795;28;8981;-63
2023/04/30 10:57:11;;;;;;;;;;;;;;;26.90;43.18;94127.19;5029186;28;9026;-63
2023/04/30 11:00:05;;;;;;;;;;;;;;;26.90;42.74;94124.41;5028194;28;7096;-63
2023/04/30 11:02:43;;;;;;;;;;;;;;;26.90;43.19;94124.41;5006254;28;7615;-63
2023/04/30 11:05:16;;;;;;;;;;;;;;;26.86;42.70;94127.47;5014804;28;7422;-62
2023/04/30 11:08:16;;;;;;;;;;;;;;;26.82;43.26;94127.03;5006831;28;7294;-63
2023/04/30 11:11:00;;;;;;;;;;;;;;;26.84;43.37;94124.50;4994314;28;6860;-62
2023/04/30 11:13:27;;;;;;;;;;;;;;;26.88;43.41;94115.94;5005993;28;9601;-62
2023/04/30 11:16:02;;;;;;;;;;;;;;;26.86;42.40;94118.47;5000461;28;8200;-62
2023/04/30 11:18:28;;;;;;;;;;;;;;;26.87;43.00;94117.19;5007759;28;7370;-64
2023/04/30 11:20:56;;;;;;;;;;;;;;;26.87;42.99;94111.66;4993656;28;9354;-64
2023/04/30 11:23:25;;;;;;;;;;;;;;;26.89;42.19;94114.63;5015218;28;8755;-64
2023/04/30 11:25:59;;;;;;;;;;;;;;;26.88;42.40;94115.94;4994161;28;7457;-64
2023/04/30 11:28:27;;;;;;;;;;;;;;;26.92;42.71;94124.63;4995134;28;7254;-63
2023/04/30 11:30:55;;;;;;;;;;;;;;;26.92;42.14;94121.88;4990634;28;7271;-63
2023/04/30 11:33:32;;;;;;;;;;;;;;;26.92;42.44;94123.88;4988864;28;7202;-64
2023/04/30 11:36:00;;;;;;;;;;;;;;;26.92;42.01;94119.13;5006234;28;9186;-63
2023/04/30 11:38:58;;;;;;;;;;;;;;;26.93;42.24;94123.34;4994532;28;8646;-64
2023/04/30 11:41:42;;;;;;;;;;;;;;;26.90;42.45;94116.88;5024914;28;7359;-63
2023/04/30 11:45:03;;;;;;;;;;;;;;;26.94;42.35;94119.34;5032929;28;8910;-63
2023/04/30 11:47:53;;;;;;;;;;;;;;;26.94;42.46;94119.34;5038983;28;7364;-64
2023/04/30 11:50:27;;;;;;;;;;;;;;;26.92;42.70;94121.13;5036054;28;7302;-63
2023/04/30 11:53:04;;;;;;;;;;;;;;;26.92;42.49;94121.88;5023500;28;8693;-63
2023/04/30 11:55:40;;;;;;;;;;;;;;;26.88;42.67;94119.41;5032100;28;9062;-63
2023/04/30 11:58:14;;;;;;;;;;;;;;;26.84;42.33;94110.69;5050640;28;7248;-63
2023/04/30 12:00:42;;;;;;;;;;;;;;;26.82;42.89;94109.72;5033798;28;9049;-63
2023/04/30 12:03:13;;;;;;;;;;;;;;;26.84;42.63;94115.47;5023606;28;7605;-63
2023/04/30 12:05:47;;;;;;;;;;;;;;;26.84;42.22;94118.22;5041301;28;7101;-63
2023/04/30 12:08:16;;;;;;;;;;;;;;;26.83;41.87;94114.75;5028701;28;9394;-63
2023/04/30 12:10:46;;;;;;;;;;;;;;;26.81;42.16;94111.00;5021244;28;9466;-63
2023/04/30 12:13:25;;;;;;;;;;;;;;;26.84;42.26;94115.47;5017286;28;7245;-63
2023/04/30 12:16:02;;;;;;;;;;;;;;;26.81;42.87;94111.00;5030450;28;9024;-63
2023/04/30 12:18:36;;;;;;;;;;;;;;;26.79;42.42;94105.28;5041005;28;7267;-63
2023/04/30 12:21:06;;;;;;;;;;;;;;;26.80;42.15;94104.00;5030139;28;7197;-64
2023/04/30 12:23:32;;;;;;;;;;;;;;;26.79;42.17;94110.78;5014341;28;7319;-63
2023/04/30 12:26:10;;;;;;;;;;;;;;;26.81;42.23;94116.53;5029132;28;7162;-63
2023/04/30 12:29:15;;;;;;;;;;;;;;;26.80;42.09;94115.03;5021430;28;7196;-64
2023/04/30 12:31:51;;;;;;;;;;;;;;;26.78;42.55;94112.81;5009763;28;7628;-63
2023/04/30 12:34:17;;;;;;;;;;;;;;;26.81;42.16;94116.53;5012584;28;7237;-63
2023/04/30 12:36:52;;;;;;;;;;;;;;;26.80;41.67;94106.75;5012967;28;9139;-63
2023/04/30 12:39:34;;;;;;;;;;;;;;;26.80;41.88;94106.75;4996195;28;9439;-63
2023/04/30 12:42:19;;;;;;;;;;;;;;;26.83;41.73;94111.22;4996013;28;7192;-63
2023/04/30 12:44:55;;;;;;;;;;;;;;;26.82;41.96;94106.97;4997102;28;7842;-63
2023/04/30 12:47:54;;;;;;;;;;;;;;;26.80;42.00;94098.47;5002240;28;7226;-63
2023/04/30 12:50:22;;;;;;;;;;;;;;;26.83;41.98;94105.72;4946250;28;7353;-63
2023/04/30 12:53:08;;;;;;;;;;;;;;;26.83;41.84;94103.69;4961491;28;7647;-64
2023/04/30 12:56:22;;;;;;;;;;;;;;;26.83;42.12;94102.94;4946348;28;7282;-63
2023/04/30 12:58:49;;;;;;;;;;;;;;;26.80;41.93;94104.75;4943558;28;9056;-63
2023/04/30 13:01:24;;;;;;;;;;;;;;;26.79;41.77;94102.53;4946231;28;8636;-63
2023/04/30 13:03:52;;;;;;;;;;;;;;;26.80;41.98;94095.72;4941183;28;7177;-63
2023/04/30 13:06:18;;;;;;;;;;;;;;;26.79;41.99;94097.00;4965637;28;7250;-63
2023/04/30 13:09:15;;;;;;;;;;;;;;;26.79;41.92;94097.00;4980914;28;9109;-63
2023/04/30 13:12:11;;;;;;;;;;;;;;;26.79;41.91;94095.00;4975977;28;7292;-63
2023/04/30 13:14:47;;;;;;;;;;;;;;;26.79;42.30;94097.00;4975139;28;8948;-63
2023/04/30 13:17:28;;;;;;;;;;;;;;;26.79;41.49;94097.75;4979224;28;7114;-63
2023/04/30 13:20:06;;;;;;;;;;;;;;;26.79;41.55;94091.47;4979777;28;7307;-63
2023/04/30 13:22:47;;;;;;;;;;;;;;;26.79;41.88;94089.47;4982935;28;9136;-62
2023/04/30 13:25:16;;;;;;;;;;;;;;;26.79;41.92;94085.97;4965529;28;9014;-63
2023/04/30 13:27:45;;;;;;;;;;;;;;;26.80;41.74;94087.44;5025821;28;7113;-63
2023/04/30 13:30:13;;;;;;;;;;;;;;;26.83;41.75;94089.16;5036096;28;7302;-63
2023/04/30 13:32:48;;;;;;;;;;;;;;;26.86;41.58;94090.88;5031202;28;7030;-63
2023/04/30 13:35:49;;;;;;;;;;;;;;;26.88;41.89;94094.56;5020388;28;7282;-63
2023/04/30 13:38:16;;;;;;;;;;;;;;;26.86;41.39;94080.56;4968489;28;7436;-63
2023/04/30 13:40:56;;;;;;;;;;;;;;;26.87;42.09;94082.06;4971901;28;7016;-63
2023/04/30 13:43:23;;;;;;;;;;;;;;;26.88;41.77;94082.81;4975357;28;8342;-63
2023/04/30 13:45:57;;;;;;;;;;;;;;;26.87;42.03;94086.81;4964937;28;7323;-64
2023/04/30 13:48:24;;;;;;;;;;;;;;;26.86;42.08;94080.56;4959308;28;8835;-63
2023/04/30 13:50:55;;;;;;;;;;;;;;;26.85;41.88;94086.63;4978925;28;6994;-63